Time;durP1;ratioP1;P1;durP2;ratioP2;P2;SDS_P1;SDS_P2;PMS_P1;PMS_P2;Temp;Humidity;BMP_temperature;BMP_pressure;BME280_temperature;BME280_humidity;BME280_pressure;Samples;Min_cycle;Max_cycle;Signal;HPM_P1;HPM_P2
2021/12/10 00:01:20;;;;;;;;;;;;;;;16.96;45.68;99736.66;5084709;28;19913;-47
2021/12/10 00:03:47;;;;;;;;;;;;;;;16.96;45.69;99733.97;5083443;28;19935;-48
2021/12/10 00:06:17;;;;;;;;;;;;;;;16.95;45.68;99726.94;5085278;28;19912;-48
2021/12/10 00:08:43;;;;;;;;;;;;;;;16.94;45.69;99725.25;5085128;28;19948;-48
2021/12/10 00:11:11;;;;;;;;;;;;;;;16.93;45.58;99718.22;5084470;28;19962;-49
2021/12/10 00:13:37;;;;;;;;;;;;;;;16.92;45.51;99714.72;5084780;28;19931;-46
2021/12/10 00:16:02;;;;;;;;;;;;;;;16.92;45.52;99706.66;5083748;28;19912;-47
2021/12/10 00:18:33;;;;;;;;;;;;;;;16.92;45.58;99709.34;5084596;28;20428;-46
2021/12/10 00:20:59;;;;;;;;;;;;;;;16.90;45.48;99697.94;5085247;28;20100;-47
2021/12/10 00:23:28;;;;;;;;;;;;;;;16.89;45.54;99693.59;5084447;28;19924;-44
2021/12/10 00:25:53;;;;;;;;;;;;;;;16.88;45.65;99694.63;5084538;28;19920;-48
2021/12/10 00:28:22;;;;;;;;;;;;;;;16.88;45.71;99697.28;5084380;28;19913;-48
2021/12/10 00:33:44;;;;;;;;;;;;;;;16.87;45.56;99684.06;5022335;28;19914;-49
2021/12/10 00:36:09;;;;;;;;;;;;;;;16.87;45.65;99681.38;5006064;28;20752;-49
2021/12/10 00:38:35;;;;;;;;;;;;;;;16.85;45.64;99670.81;5022298;28;19926;-48
2021/12/10 00:41:01;;;;;;;;;;;;;;;16.85;45.64;99676.19;5018094;28;19918;-48
2021/12/10 00:43:26;;;;;;;;;;;;;;;16.84;45.64;99679.91;5002610;28;19914;-46
2021/12/10 00:45:52;;;;;;;;;;;;;;;16.84;45.69;99662.97;5012730;28;19948;-49
2021/12/10 00:48:17;;;;;;;;;;;;;;;16.83;45.49;99664.81;5021851;28;19945;-46
2021/12/10 00:50:44;;;;;;;;;;;;;;;16.83;45.55;99655.94;5005487;28;19960;-45
2021/12/10 00:53:09;;;;;;;;;;;;;;;16.83;45.48;99656.75;5022056;28;19997;-48
2021/12/10 00:55:35;;;;;;;;;;;;;;;16.83;45.53;99650.56;5021981;28;19914;-48
2021/12/10 00:58:00;;;;;;;;;;;;;;;16.81;45.47;99642.69;5022007;28;19921;-49
2021/12/10 01:00:34;;;;;;;;;;;;;;;16.80;45.46;99638.34;5024359;28;19917;-49
2021/12/10 01:02:59;;;;;;;;;;;;;;;16.81;45.63;99633.78;5041316;28;19913;-48
2021/12/10 01:05:24;;;;;;;;;;;;;;;16.80;45.52;99629.44;5023096;28;19920;-46
2021/12/10 01:07:50;;;;;;;;;;;;;;;16.79;45.45;99628.63;5022078;28;19928;-46
2021/12/10 01:10:18;;;;;;;;;;;;;;;16.78;45.52;99621.59;5041134;28;19924;-48
2021/12/10 01:12:49;;;;;;;;;;;;;;;16.77;45.46;99624.44;5083700;28;19912;-45
2021/12/10 01:15:41;;;;;;;;;;;;;;;16.76;45.56;99626.28;5083561;28;20407;-45
2021/12/10 01:23:58;;;;;;;;;;;;;;;16.76;45.49;99612.03;5084125;28;20384;-46
2021/12/10 01:29:10;;;;;;;;;;;;;;;16.73;45.54;99619.44;5091852;28;19986;-46
2021/12/10 01:31:36;;;;;;;;;;;;;;;16.73;45.61;99610.56;5087349;28;20417;-47
2021/12/10 01:34:02;;;;;;;;;;;;;;;16.73;45.51;99615.94;5087884;28;19919;-47
2021/12/10 01:36:27;;;;;;;;;;;;;;;16.72;45.44;99611.56;5088177;28;19927;-49
2021/12/10 01:38:54;;;;;;;;;;;;;;;16.71;45.54;99612.56;5088050;28;20452;-47
2021/12/10 01:41:20;;;;;;;;;;;;;;;16.71;45.63;99601.84;5087738;28;19913;-47
2021/12/10 01:43:47;;;;;;;;;;;;;;;16.71;45.44;99599.16;5069768;28;19923;-47
2021/12/10 01:46:14;;;;;;;;;;;;;;;16.69;45.59;99585.94;5069190;28;19975;-48
2021/12/10 01:48:50;;;;;;;;;;;;;;;16.69;45.38;99577.03;5069502;28;19912;-48
2021/12/10 01:51:16;;;;;;;;;;;;;;;16.68;45.46;99568.16;5087889;28;19920;-46
2021/12/10 01:53:42;;;;;;;;;;;;;;;16.68;45.57;99567.31;5087820;28;19912;-47
2021/12/10 01:56:09;;;;;;;;;;;;;;;16.66;45.51;99572.88;5087492;28;19912;-47
2021/12/10 01:58:34;;;;;;;;;;;;;;;16.66;45.58;99574.72;5087515;28;19975;-47
2021/12/10 02:01:01;;;;;;;;;;;;;;;16.65;45.42;99581.09;5086900;28;19916;-45
2021/12/10 02:03:26;;;;;;;;;;;;;;;16.64;45.61;99582.94;5087340;28;19912;-47
2021/12/10 02:05:52;;;;;;;;;;;;;;;16.64;45.48;99571.38;5087236;28;19916;-50
2021/12/10 02:08:17;;;;;;;;;;;;;;;16.63;45.53;99573.25;5087512;28;20335;-48
2021/12/10 02:10:42;;;;;;;;;;;;;;;16.63;45.34;99575.09;5086773;28;19920;-46
2021/12/10 02:13:07;;;;;;;;;;;;;;;16.63;45.54;99573.25;5087314;28;19919;-46
2021/12/10 02:15:33;;;;;;;;;;;;;;;16.64;45.41;99566.84;5086696;28;19947;-46
2021/12/10 02:17:59;;;;;;;;;;;;;;;16.63;45.54;99557.16;5086873;28;19920;-46
2021/12/10 02:20:56;;;;;;;;;;;;;;;16.62;45.51;99554.66;5069189;28;19921;-45
2021/12/10 02:23:22;;;;;;;;;;;;;;;16.61;45.38;99548.47;5005122;28;20008;-44
2021/12/10 02:25:48;;;;;;;;;;;;;;;16.61;45.51;99552.97;5004586;28;19976;-47
2021/12/10 02:28:13;;;;;;;;;;;;;;;16.61;45.42;99540.41;5004655;28;19996;-50
2021/12/10 02:30:39;;;;;;;;;;;;;;;16.60;45.51;99537.91;5004235;28;19997;-45
2021/12/10 02:33:04;;;;;;;;;;;;;;;16.60;45.52;99529.84;5004581;28;19919;-49
2021/12/10 02:35:30;;;;;;;;;;;;;;;16.60;45.38;99532.53;5004765;28;19967;-46
2021/12/10 02:37:55;;;;;;;;;;;;;;;16.60;45.49;99521.78;5004175;28;19913;-46
2021/12/10 02:40:21;;;;;;;;;;;;;;;16.59;45.51;99517.44;5002501;28;19921;-48
2021/12/10 02:42:48;;;;;;;;;;;;;;;16.59;45.42;99518.28;4985218;28;19921;-49
2021/12/10 02:45:16;;;;;;;;;;;;;;;16.58;45.45;99510.44;4990350;28;19920;-49
2021/12/10 02:47:41;;;;;;;;;;;;;;;16.58;45.52;99507.75;5004128;28;19936;-48
2021/12/10 02:50:07;;;;;;;;;;;;;;;16.57;45.46;99506.09;5004630;28;19992;-46
2021/12/10 02:52:32;;;;;;;;;;;;;;;16.56;45.55;99497.19;5004321;28;20029;-47
2021/12/10 02:54:58;;;;;;;;;;;;;;;16.56;45.51;99496.34;5004428;28;19914;-47
2021/12/10 02:57:25;;;;;;;;;;;;;;;16.54;45.49;99499.22;5004636;28;19921;-45
2021/12/10 02:59:50;;;;;;;;;;;;;;;16.53;45.38;99494.91;5075633;28;19928;-48
2021/12/10 03:02:16;;;;;;;;;;;;;;;16.47;45.46;99483.03;5085235;28;19917;-45
2021/12/10 03:04:42;;;;;;;;;;;;;;;16.53;45.54;99480.66;5086013;28;19913;-49
2021/12/10 03:07:12;;;;;;;;;;;;;;;16.52;45.49;99469.06;5068318;28;19913;-47
2021/12/10 03:09:37;;;;;;;;;;;;;;;16.50;45.64;99463.91;5086158;28;19928;-46
2021/12/10 03:12:03;;;;;;;;;;;;;;;16.49;45.54;99461.41;5086005;28;19912;-47
2021/12/10 03:14:30;;;;;;;;;;;;;;;16.49;45.51;99450.69;5086014;28;19919;-47
2021/12/10 03:16:56;;;;;;;;;;;;;;;16.48;45.58;99454.34;5067545;28;19920;-46
2021/12/10 03:19:21;;;;;;;;;;;;;;;16.46;45.58;99449.19;5086091;28;19976;-46
2021/12/10 03:21:47;;;;;;;;;;;;;;;16.46;45.53;99451.88;5086281;28;19912;-47
2021/12/10 03:24:13;;;;;;;;;;;;;;;16.46;45.57;99449.19;5086021;28;20361;-46
2021/12/10 03:26:39;;;;;;;;;;;;;;;16.45;45.51;99444.84;5085931;28;19958;-48
2021/12/10 03:29:04;;;;;;;;;;;;;;;16.45;45.47;99452.91;5085599;28;19920;-46
2021/12/10 03:31:29;;;;;;;;;;;;;;;16.44;45.65;99437.00;5085078;28;19924;-49
2021/12/10 03:33:55;;;;;;;;;;;;;;;16.44;45.50;99443.19;5067100;28;19920;-49
2021/12/10 03:36:20;;;;;;;;;;;;;;;16.42;45.49;99437.16;5085852;28;19913;-45
2021/12/10 03:38:45;;;;;;;;;;;;;;;16.42;45.55;99439.03;5085838;28;20361;-46
2021/12/10 03:41:11;;;;;;;;;;;;;;;16.41;45.57;99435.53;5085557;28;20061;-49
2021/12/10 03:43:37;;;;;;;;;;;;;;;16.41;45.69;99429.31;5085568;28;20399;-45
2021/12/10 03:46:03;;;;;;;;;;;;;;;16.40;45.67;99422.31;5084852;28;19983;-46
2021/12/10 03:48:31;;;;;;;;;;;;;;;16.40;45.50;99414.25;5085291;28;19913;-44
2021/12/10 03:50:57;;;;;;;;;;;;;;;16.38;45.71;99406.38;5083379;28;20439;-46
2021/12/10 03:53:23;;;;;;;;;;;;;;;16.38;45.69;99402.88;5085281;28;19913;-45
2021/12/10 03:55:48;;;;;;;;;;;;;;;16.38;45.69;99410.91;5085427;28;19918;-48
2021/12/10 03:58:14;;;;;;;;;;;;;;;16.37;45.62;99393.16;5085273;28;19940;-48
2021/12/10 04:00:44;;;;;;;;;;;;;;;16.37;45.73;99393.16;5084778;28;19919;-41
2021/12/10 04:03:10;;;;;;;;;;;;;;;16.36;45.56;99392.34;5084681;28;19964;-46
2021/12/10 04:05:36;;;;;;;;;;;;;;;16.35;45.70;99385.28;5085170;28;19912;-44
2021/12/10 04:08:01;;;;;;;;;;;;;;;16.34;45.81;99380.13;5085254;28;19912;-47
2021/12/10 04:10:26;;;;;;;;;;;;;;;16.34;45.53;99380.94;5084761;28;19928;-46
2021/12/10 04:12:52;;;;;;;;;;;;;;;16.34;45.63;99380.13;5084847;28;19916;-48
2021/12/10 04:15:20;;;;;;;;;;;;;;;16.33;45.68;99368.56;5084562;28;19912;-46
2021/12/10 04:17:48;;;;;;;;;;;;;;;16.32;45.66;99371.44;5084613;28;19919;-45
2021/12/10 04:20:13;;;;;;;;;;;;;;;16.32;45.75;99366.09;5084953;28;19964;-49
2021/12/10 04:22:38;;;;;;;;;;;;;;;16.31;45.73;99362.59;5085013;28;19912;-49
2021/12/10 04:25:05;;;;;;;;;;;;;;;16.31;45.82;99356.34;5084847;28;20010;-46
2021/12/10 04:27:30;;;;;;;;;;;;;;;16.30;45.63;99360.06;5084829;28;19917;-45
2021/12/10 04:29:58;;;;;;;;;;;;;;;16.29;45.71;99361.91;5084413;28;19956;-48
2021/12/10 04:32:24;;;;;;;;;;;;;;;16.28;45.70;99354.91;5083974;28;19920;-47
2021/12/10 04:34:49;;;;;;;;;;;;;;;16.27;45.67;99342.53;5084358;28;19916;-50
2021/12/10 04:37:15;;;;;;;;;;;;;;;16.27;45.84;99337.16;5084709;28;20558;-45
2021/12/10 04:39:45;;;;;;;;;;;;;;;16.25;45.78;99337.31;5084808;28;19937;-46
2021/12/10 04:42:11;;;;;;;;;;;;;;;16.25;45.73;99323.09;5084398;28;19917;-49
2021/12/10 04:44:36;;;;;;;;;;;;;;;16.25;45.73;99336.50;5084414;28;19934;-46
2021/12/10 04:47:02;;;;;;;;;;;;;;;16.25;45.84;99317.72;5083828;28;19912;-46
2021/12/10 04:49:27;;;;;;;;;;;;;;;16.25;45.79;99323.91;5084182;28;19927;-44
2021/12/10 04:51:54;;;;;;;;;;;;;;;16.24;45.83;99319.59;5084616;28;19938;-44
2021/12/10 04:54:20;;;;;;;;;;;;;;;16.25;45.76;99317.72;5084292;28;19978;-47
2021/12/10 04:56:46;;;;;;;;;;;;;;;16.25;45.72;99307.81;5084353;28;19916;-46
2021/12/10 04:59:13;;;;;;;;;;;;;;;16.25;45.73;99304.31;5084298;28;19913;-48
2021/12/10 05:01:38;;;;;;;;;;;;;;;16.24;45.72;99300.81;5083401;28;19912;-48
2021/12/10 05:04:06;;;;;;;;;;;;;;;16.24;45.77;99295.44;5084016;28;19920;-48
2021/12/10 05:06:31;;;;;;;;;;;;;;;16.25;45.80;99282.88;5084534;28;19913;-49
2021/12/10 05:08:56;;;;;;;;;;;;;;;16.24;45.80;99276.69;5084101;28;19923;-47
2021/12/10 05:11:23;;;;;;;;;;;;;;;16.25;45.75;99282.88;5083622;28;21271;-48
2021/12/10 05:13:49;;;;;;;;;;;;;;;16.24;45.76;99278.53;5084125;28;20515;-50
2021/12/10 05:16:15;;;;;;;;;;;;;;;16.25;45.70;99290.91;5083561;28;19916;-48
2021/12/10 05:18:43;;;;;;;;;;;;;;;16.24;45.82;99276.69;5084072;28;19920;-45
2021/12/10 05:21:09;;;;;;;;;;;;;;;16.23;45.82;99283.06;5079219;28;19919;-49
2021/12/10 05:23:34;;;;;;;;;;;;;;;16.24;45.78;99278.53;5063881;28;19921;-47
2021/12/10 05:25:59;;;;;;;;;;;;;;;16.23;45.86;99277.69;5063577;28;19963;-48
2021/12/10 05:28:25;;;;;;;;;;;;;;;16.23;45.86;99277.69;5072184;28;19913;-48
2021/12/10 05:30:54;;;;;;;;;;;;;;;16.24;45.98;99271.31;5083147;28;19959;-50
2021/12/10 05:33:20;;;;;;;;;;;;;;;16.25;45.98;99266.78;5083362;28;19912;-48
2021/12/10 05:35:46;;;;;;;;;;;;;;;16.25;46.10;99258.72;5077460;28;20003;-46
2021/12/10 05:38:12;;;;;;;;;;;;;;;16.26;46.32;99255.03;5070684;28;19920;-46
2021/12/10 05:40:37;;;;;;;;;;;;;;;16.25;46.28;99251.50;5082696;28;19917;-49
2021/12/10 05:43:02;;;;;;;;;;;;;;;16.26;46.24;99249.66;5073208;28;19912;-45
2021/12/10 05:45:28;;;;;;;;;;;;;;;16.27;46.31;99251.34;5076551;28;19995;-49
2021/12/10 05:47:53;;;;;;;;;;;;;;;16.28;46.35;99239.59;5074489;28;19913;-47
2021/12/10 05:50:20;;;;;;;;;;;;;;;16.29;46.23;99243.09;5068542;28;19921;-45
2021/12/10 05:52:45;;;;;;;;;;;;;;;16.29;46.38;99243.91;5074817;28;19924;-47
2021/12/10 05:55:11;;;;;;;;;;;;;;;16.30;46.22;99242.06;5082916;28;20007;-47
2021/12/10 05:57:36;;;;;;;;;;;;;;;16.31;46.36;99241.88;5083227;28;20503;-46
2021/12/10 06:00:02;;;;;;;;;;;;;;;16.30;46.48;99237.53;5063613;28;19920;-44
2021/12/10 06:02:28;;;;;;;;;;;;;;;16.30;46.48;99242.88;5067381;28;20007;-47
2021/12/10 06:04:53;;;;;;;;;;;;;;;16.32;46.40;99242.72;5079374;28;19924;-50
2021/12/10 06:07:18;;;;;;;;;;;;;;;16.31;46.45;99241.88;5080408;28;19913;-49
2021/12/10 06:09:44;;;;;;;;;;;;;;;16.21;46.58;99220.75;5082838;28;19928;-47
2021/12/10 06:12:09;;;;;;;;;;;;;;;16.31;46.54;99228.47;5066145;28;20343;-47
2021/12/10 06:14:34;;;;;;;;;;;;;;;16.32;46.66;99229.31;5081051;28;20031;-49
2021/12/10 06:17:01;;;;;;;;;;;;;;;16.32;46.55;99223.94;5073275;28;20420;-47
2021/12/10 06:19:26;;;;;;;;;;;;;;;16.34;46.72;99224.56;5083094;28;19923;-45
2021/12/10 06:21:51;;;;;;;;;;;;;;;16.33;46.69;99212.19;5086718;28;19913;-49
2021/12/10 06:24:16;;;;;;;;;;;;;;;16.34;46.55;99211.16;5068478;28;19972;-47
2021/12/10 06:26:42;;;;;;;;;;;;;;;16.34;46.64;99211.16;5075955;28;19911;-48
2021/12/10 06:29:07;;;;;;;;;;;;;;;16.33;46.55;99202.28;5084169;28;19983;-50
2021/12/10 06:31:32;;;;;;;;;;;;;;;16.34;46.67;99208.47;5085521;28;19923;-52
2021/12/10 06:33:58;;;;;;;;;;;;;;;16.34;46.72;99214.66;5074740;28;19916;-48
2021/12/10 06:36:23;;;;;;;;;;;;;;;16.34;46.75;99220.03;5066613;28;19920;-48
2021/12/10 06:38:49;;;;;;;;;;;;;;;16.35;46.71;99218.19;5076494;28;19970;-50
2021/12/10 06:41:14;;;;;;;;;;;;;;;16.34;46.65;99211.97;5086084;28;19912;-50
2021/12/10 06:43:40;;;;;;;;;;;;;;;16.36;46.72;99206.44;5086147;28;19919;-52
2021/12/10 06:46:06;;;;;;;;;;;;;;;16.37;46.64;99202.72;5080607;28;19913;-52
2021/12/10 06:48:31;;;;;;;;;;;;;;;16.37;46.62;99200.06;5083197;28;19916;-48
2021/12/10 06:50:58;;;;;;;;;;;;;;;16.38;46.46;99207.06;5086109;28;19927;-48
2021/12/10 06:53:24;;;;;;;;;;;;;;;16.38;46.54;99199.84;5071631;28;20007;-51
2021/12/10 06:55:49;;;;;;;;;;;;;;;16.39;46.54;99206.88;5081408;28;19912;-51
2021/12/10 06:58:15;;;;;;;;;;;;;;;16.40;46.48;99202.34;5085842;28;19916;-48
2021/12/10 07:00:43;;;;;;;;;;;;;;;16.39;46.69;99208.72;5074335;28;20024;-49
2021/12/10 07:03:14;;;;;;;;;;;;;;;16.37;46.70;99200.06;5085617;28;19913;-51
2021/12/10 07:05:40;;;;;;;;;;;;;;;16.40;46.62;99205.03;5085423;28;19915;-49
2021/12/10 07:08:05;;;;;;;;;;;;;;;16.40;46.74;99210.41;5085697;28;19956;-48
2021/12/10 07:10:30;;;;;;;;;;;;;;;16.40;46.71;99202.34;5074841;28;19927;-46
2021/12/10 07:12:55;;;;;;;;;;;;;;;16.39;46.51;99212.22;5082212;28;20939;-46
2021/12/10 07:15:20;;;;;;;;;;;;;;;16.40;46.60;99213.91;5081838;28;19924;-47
2021/12/10 07:17:47;;;;;;;;;;;;;;;16.44;46.59;99212.50;5070168;28;19924;-48
2021/12/10 07:20:13;;;;;;;;;;;;;;;16.49;46.55;99212.75;5074514;28;19938;-45
2021/12/10 07:22:38;;;;;;;;;;;;;;;16.52;46.42;99208.00;5085952;28;19916;-47
2021/12/10 07:25:04;;;;;;;;;;;;;;;16.54;46.43;99205.97;5085664;28;19969;-48
2021/12/10 07:27:30;;;;;;;;;;;;;;;16.56;46.35;99207.41;5085534;28;19921;-48
2021/12/10 07:29:55;;;;;;;;;;;;;;;16.58;46.33;99205.38;5085416;28;20240;-51
2021/12/10 07:32:20;;;;;;;;;;;;;;;16.60;46.16;99206.00;5083904;28;20436;-46
2021/12/10 07:34:45;;;;;;;;;;;;;;;16.62;46.25;99206.66;5084645;28;19916;-46
2021/12/10 07:37:10;;;;;;;;;;;;;;;16.63;46.03;99204.78;5085815;28;19961;-47
2021/12/10 07:39:37;;;;;;;;;;;;;;;16.64;46.02;99215.31;5085857;28;19912;-45
2021/12/10 07:42:02;;;;;;;;;;;;;;;16.67;46.11;99217.63;5082679;28;19917;-48
2021/12/10 07:44:28;;;;;;;;;;;;;;;16.69;46.07;99209.38;5082356;28;19912;-47
2021/12/10 07:46:55;;;;;;;;;;;;;;;16.69;45.98;99210.22;5084157;28;19919;-48
2021/12/10 07:49:27;;;;;;;;;;;;;;;16.71;45.89;99207.34;5072180;28;19917;-50
2021/12/10 07:51:54;;;;;;;;;;;;;;;16.72;46.04;99206.31;5085685;28;19916;-50
2021/12/10 07:54:19;;;;;;;;;;;;;;;16.73;45.77;99202.63;5085387;28;19916;-49
2021/12/10 07:56:45;;;;;;;;;;;;;;;16.75;45.84;99214.00;5085347;28;20428;-47
2021/12/10 07:59:10;;;;;;;;;;;;;;;16.77;45.76;99216.47;5084750;28;19916;-49
2021/12/10 08:01:35;;;;;;;;;;;;;;;16.77;45.82;99214.63;5084358;28;20019;-47
2021/12/10 08:04:02;;;;;;;;;;;;;;;16.80;45.56;99216.94;5084413;28;20022;-48
2021/12/10 08:06:28;;;;;;;;;;;;;;;16.82;45.69;99225.63;5084732;28;19948;-51
2021/12/10 08:08:53;;;;;;;;;;;;;;;16.82;45.48;99217.56;5085037;28;20343;-46
2021/12/10 08:11:18;;;;;;;;;;;;;;;16.85;45.36;99216.34;5066766;28;19921;-45
2021/12/10 08:13:43;;;;;;;;;;;;;;;16.86;45.36;99216.13;5081708;28;20004;-46
2021/12/10 08:16:09;;;;;;;;;;;;;;;16.88;45.26;99221.31;5077279;28;20012;-48
2021/12/10 08:18:34;;;;;;;;;;;;;;;16.89;45.28;99214.91;5084377;28;19916;-48
2021/12/10 08:20:59;;;;;;;;;;;;;;;16.90;45.23;99220.06;5081442;28;19920;-47
2021/12/10 08:23:24;;;;;;;;;;;;;;;16.90;45.52;99220.06;5067150;28;19955;-47
2021/12/10 08:25:50;;;;;;;;;;;;;;;16.92;45.31;99219.91;5066217;28;19927;-51
2021/12/10 08:28:15;;;;;;;;;;;;;;;16.93;45.31;99222.38;5084033;28;19952;-45
2021/12/10 08:30:40;;;;;;;;;;;;;;;16.95;45.16;99214.97;5083974;28;19924;-46
2021/12/10 08:33:12;;;;;;;;;;;;;;;16.97;45.13;99212.91;5083891;28;20292;-46
2021/12/10 08:35:37;;;;;;;;;;;;;;;16.99;45.12;99213.56;5066140;28;19923;-51
2021/12/10 08:38:03;;;;;;;;;;;;;;;17.00;44.95;99219.75;5074220;28;19948;-47
2021/12/10 08:40:29;;;;;;;;;;;;;;;17.01;44.99;99218.72;5079778;28;19916;-47
2021/12/10 08:42:55;;;;;;;;;;;;;;;17.01;44.88;99220.56;5077884;28;19974;-50
2021/12/10 08:45:21;;;;;;;;;;;;;;;17.02;44.91;99217.69;5079869;28;19924;-49
2021/12/10 08:47:46;;;;;;;;;;;;;;;17.02;44.88;99223.06;5083132;28;19919;-46
2021/12/10 08:50:12;;;;;;;;;;;;;;;17.03;44.83;99223.88;5073711;28;19924;-48
2021/12/10 08:52:37;;;;;;;;;;;;;;;17.04;44.93;99228.25;5080345;28;19920;-45
2021/12/10 08:55:03;;;;;;;;;;;;;;;17.04;44.87;99226.38;5081022;28;19955;-47
2021/12/10 08:57:30;;;;;;;;;;;;;;;17.04;44.86;99233.63;5080860;28;19916;-49
2021/12/10 08:59:55;;;;;;;;;;;;;;;17.06;44.96;99234.22;5081690;28;19927;-49
2021/12/10 09:02:20;;;;;;;;;;;;;;;17.07;45.00;99234.03;5081397;28;20005;-43
2021/12/10 09:04:45;;;;;;;;;;;;;;;17.11;44.94;99232.59;5081356;28;20492;-45
2021/12/10 09:07:11;;;;;;;;;;;;;;;17.14;44.93;99228.72;5081468;28;19912;-48
2021/12/10 09:09:38;;;;;;;;;;;;;;;17.17;45.12;99228.31;5081912;28;19947;-44
2021/12/10 09:12:05;;;;;;;;;;;;;;;17.21;45.00;99232.28;5081719;28;19917;-50
2021/12/10 09:14:35;;;;;;;;;;;;;;;17.23;45.04;99233.72;5081961;28;19983;-51
2021/12/10 09:17:01;;;;;;;;;;;;;;;17.27;44.99;99236.84;5080084;28;19924;-47
2021/12/10 09:19:26;;;;;;;;;;;;;;;17.33;44.99;99248.63;5081976;28;19912;-51
2021/12/10 09:21:52;;;;;;;;;;;;;;;17.36;44.94;99235.63;5063546;28;19986;-45
2021/12/10 09:24:18;;;;;;;;;;;;;;;17.41;44.88;99235.03;5064295;28;19970;-44
2021/12/10 09:26:44;;;;;;;;;;;;;;;17.44;44.80;99237.34;5077836;28;19927;-48
2021/12/10 09:29:10;;;;;;;;;;;;;;;17.47;44.82;99243.13;5078041;28;19955;-48
2021/12/10 09:31:38;;;;;;;;;;;;;;;17.51;44.78;99235.53;5079653;28;19924;-51
2021/12/10 09:34:04;;;;;;;;;;;;;;;17.53;44.66;99233.44;5080903;28;19931;-45
2021/12/10 09:36:29;;;;;;;;;;;;;;;17.56;44.80;99234.91;5062332;28;19940;-45
2021/12/10 09:38:54;;;;;;;;;;;;;;;17.57;44.82;99232.00;5081266;28;19923;-47
2021/12/10 09:41:20;;;;;;;;;;;;;;;17.59;44.59;99234.53;5063659;28;19916;-42
2021/12/10 09:43:45;;;;;;;;;;;;;;;17.61;44.50;99237.81;5081587;28;19959;-48
2021/12/10 09:46:11;;;;;;;;;;;;;;;17.62;44.51;99237.59;5082430;28;19916;-48
2021/12/10 09:48:36;;;;;;;;;;;;;;;17.61;44.55;99227.91;5086623;28;19916;-48
2021/12/10 09:51:07;;;;;;;;;;;;;;;17.61;44.33;99235.13;5087521;28;19916;-50
2021/12/10 09:53:32;;;;;;;;;;;;;;;17.60;44.50;99228.09;5087832;28;19924;-50
2021/12/10 09:55:57;;;;;;;;;;;;;;;17.60;44.19;99226.25;5087264;28;19917;-49
2021/12/10 09:58:23;;;;;;;;;;;;;;;17.61;44.25;99229.75;5087449;28;19930;-52
2021/12/10 10:00:54;;;;;;;;;;;;;;;17.61;44.31;99227.06;5086858;28;19919;-45
2021/12/10 10:03:21;;;;;;;;;;;;;;;17.61;44.19;99229.75;5086596;28;20320;-48
2021/12/10 10:05:46;;;;;;;;;;;;;;;17.62;44.18;99228.72;5087729;28;20004;-50
2021/12/10 10:08:14;;;;;;;;;;;;;;;17.63;44.00;99230.41;5087341;28;19920;-49
2021/12/10 10:10:41;;;;;;;;;;;;;;;17.63;44.06;99233.09;5085682;28;19927;-45
2021/12/10 10:13:07;;;;;;;;;;;;;;;17.64;43.84;99240.94;5087241;28;19916;-49
2021/12/10 10:15:33;;;;;;;;;;;;;;;17.65;43.99;99237.22;5086718;28;19913;-47
2021/12/10 10:17:59;;;;;;;;;;;;;;;17.66;43.84;99238.88;5079379;28;19921;-49
2021/12/10 10:20:26;;;;;;;;;;;;;;;17.68;43.75;99234.13;5071394;28;19969;-47
2021/12/10 10:22:51;;;;;;;;;;;;;;;17.71;43.60;99235.56;5087048;28;19916;-50
2021/12/10 10:25:18;;;;;;;;;;;;;;;17.72;43.69;99239.94;5086836;28;19943;-46
2021/12/10 10:27:43;;;;;;;;;;;;;;;17.73;43.76;99236.22;5086998;28;19913;-51
2021/12/10 10:30:14;;;;;;;;;;;;;;;17.72;43.49;99235.41;5085908;28;19927;-51
2021/12/10 10:32:43;;;;;;;;;;;;;;;17.73;43.64;99241.59;5066978;28;19912;-51
2021/12/10 10:35:10;;;;;;;;;;;;;;;17.72;43.47;99230.03;5073054;28;19934;-49
2021/12/10 10:37:36;;;;;;;;;;;;;;;17.72;43.59;99232.72;5086700;28;19956;-45
2021/12/10 10:40:03;;;;;;;;;;;;;;;17.73;43.46;99233.53;5086914;28;19935;-46
2021/12/10 10:42:28;;;;;;;;;;;;;;;17.72;43.63;99227.31;5086823;28;19970;-49
2021/12/10 10:44:58;;;;;;;;;;;;;;;17.72;43.33;99230.03;5086608;28;19912;-46
2021/12/10 10:47:24;;;;;;;;;;;;;;;17.72;43.61;99218.44;5086044;28;19916;-51
2021/12/10 10:49:51;;;;;;;;;;;;;;;17.72;43.60;99232.72;5086450;28;19923;-48
2021/12/10 10:52:16;;;;;;;;;;;;;;;17.71;43.28;99228.38;5086601;28;19917;-48
2021/12/10 10:54:42;;;;;;;;;;;;;;;17.71;43.36;99219.44;5086392;28;19934;-47
2021/12/10 10:57:11;;;;;;;;;;;;;;;17.71;43.47;99219.44;5085893;28;20365;-47
2021/12/10 10:59:36;;;;;;;;;;;;;;;17.70;43.33;99212.41;5085759;28;19934;-49
2021/12/10 11:02:06;;;;;;;;;;;;;;;17.68;43.37;99217.19;5085791;28;19983;-52
2021/12/10 11:04:33;;;;;;;;;;;;;;;17.67;43.28;99221.75;5085642;28;19924;-50
2021/12/10 11:07:08;;;;;;;;;;;;;;;17.66;43.42;99225.44;5086256;28;19934;-47
2021/12/10 11:09:34;;;;;;;;;;;;;;;17.64;43.26;99224.81;5085489;28;19924;-51
2021/12/10 11:12:01;;;;;;;;;;;;;;;17.64;43.32;99224.00;5075251;28;19921;-51
2021/12/10 11:14:26;;;;;;;;;;;;;;;17.64;43.31;99226.69;5061442;28;20429;-51
2021/12/10 11:16:53;;;;;;;;;;;;;;;17.64;43.41;99229.38;5082767;28;20522;-47
2021/12/10 11:19:20;;;;;;;;;;;;;;;17.64;43.40;99224.81;5085980;28;19980;-48
2021/12/10 11:21:49;;;;;;;;;;;;;;;17.66;43.38;99229.97;5082755;28;19927;-50
2021/12/10 11:24:20;;;;;;;;;;;;;;;17.66;43.44;99230.81;5073988;28;19917;-53
2021/12/10 11:26:49;;;;;;;;;;;;;;;17.67;43.37;99229.81;5068733;28;19923;-49
2021/12/10 11:29:32;;;;;;;;;;;;;;;17.69;43.29;99225.03;5077815;28;20361;-48
2021/12/10 11:32:03;;;;;;;;;;;;;;;17.71;43.47;99225.69;5082367;28;19921;-47
2021/12/10 11:35:01;;;;;;;;;;;;;;;17.74;43.45;99222.59;5082933;28;19921;-47
2021/12/10 11:37:39;;;;;;;;;;;;;;;17.78;43.40;99223.03;4986855;28;19945;-49
2021/12/10 11:40:04;;;;;;;;;;;;;;;17.80;43.44;99229.03;4985362;28;19918;-45
2021/12/10 11:42:45;;;;;;;;;;;;;;;17.82;43.25;99226.97;4989307;28;20541;-43
2021/12/10 11:45:50;;;;;;;;;;;;;;;17.86;43.32;99230.91;4979905;28;19918;-49
2021/12/10 11:48:22;;;;;;;;;;;;;;;17.88;43.41;99228.88;4969708;28;19922;-47
2021/12/10 11:50:55;;;;;;;;;;;;;;;17.89;43.32;99233.22;4987831;28;19926;-45
2021/12/10 11:53:21;;;;;;;;;;;;;;;17.91;43.42;99233.81;4985041;28;20675;-46
2021/12/10 11:55:57;;;;;;;;;;;;;;;17.93;43.43;99234.47;4981345;28;19942;-49
2021/12/10 11:58:22;;;;;;;;;;;;;;;17.94;43.43;99233.41;4981509;28;19914;-49
2021/12/10 12:00:47;;;;;;;;;;;;;;;17.95;43.65;99234.25;4985005;28;20359;-50
2021/12/10 12:03:12;;;;;;;;;;;;;;;17.96;43.53;99227.81;4981865;28;19953;-42
2021/12/10 12:05:40;;;;;;;;;;;;;;;17.98;43.35;99234.66;4983055;28;19933;-46
2021/12/10 12:08:13;;;;;;;;;;;;;;;18.00;43.39;99234.47;4985622;28;19918;-48
2021/12/10 12:10:40;;;;;;;;;;;;;;;18.02;43.37;99232.41;4984243;28;20280;-47
2021/12/10 12:15:39;;;;;;;;;;;;;;;18.08;43.49;99228.91;5079506;28;20317;-44
2021/12/10 12:18:14;;;;;;;;;;;;;;;18.11;43.40;99235.75;5080583;28;19927;-47
2021/12/10 12:20:41;;;;;;;;;;;;;;;18.13;43.39;99237.16;5079446;28;19923;-45
2021/12/10 12:26:06;;;;;;;;;;;;;;;18.15;43.24;99235.13;5026611;28;19931;-46
2021/12/10 12:28:31;;;;;;;;;;;;;;;18.16;43.41;99244.84;5019065;28;19917;-50
2021/12/10 12:31:02;;;;;;;;;;;;;;;18.15;43.23;99243.19;5020752;28;19976;-50
2021/12/10 12:33:28;;;;;;;;;;;;;;;18.16;43.13;99244.00;5004977;28;19993;-48
2021/12/10 12:35:54;;;;;;;;;;;;;;;18.15;43.12;99245.88;5021801;28;19917;-47
2021/12/10 12:38:22;;;;;;;;;;;;;;;18.15;43.25;99247.75;5005568;28;19913;-51
2021/12/10 12:40:48;;;;;;;;;;;;;;;18.15;43.04;99250.44;5002326;28;19918;-50
2021/12/10 12:43:13;;;;;;;;;;;;;;;18.13;43.25;99252.50;5002431;28;19914;-47
2021/12/10 12:45:39;;;;;;;;;;;;;;;18.11;43.37;99251.88;5019709;28;19952;-52
2021/12/10 12:48:09;;;;;;;;;;;;;;;18.10;43.31;99251.06;5021868;28;19963;-47
2021/12/10 12:50:34;;;;;;;;;;;;;;;18.10;43.18;99255.59;5021525;28;19921;-49
2021/12/10 12:53:07;;;;;;;;;;;;;;;18.08;43.19;99261.16;5013608;28;19928;-52
2021/12/10 12:55:51;;;;;;;;;;;;;;;18.07;43.24;99262.22;5017210;28;19927;-49
2021/12/10 12:58:29;;;;;;;;;;;;;;;18.04;43.26;99259.91;5010970;28;19921;-48
2021/12/10 13:01:05;;;;;;;;;;;;;;;18.04;43.44;99262.59;5001570;28;19955;-49
2021/12/10 13:03:35;;;;;;;;;;;;;;;18.03;43.29;99268.19;5054867;28;19916;-52